createdAt,value
2018-12-17T00:00:49.425Z,56.83
2018-12-17T00:03:18.539Z,54.63
2018-12-17T00:05:47.740Z,54.63
2018-12-17T00:08:16.873Z,52.97
2018-12-17T00:10:46.009Z,54.67
2018-12-17T00:13:15.743Z,54.00
2018-12-17T00:15:45.089Z,50.83
2018-12-17T00:18:19.776Z,48.00
2018-12-17T00:20:49.213Z,44.60
2018-12-17T00:23:18.297Z,46.27
2018-12-17T00:25:47.485Z,49.77
2018-12-17T00:28:16.763Z,54.10
2018-12-17T00:30:45.918Z,52.50
2018-12-17T00:33:15.055Z,48.03
2018-12-17T00:35:44.249Z,52.00
2018-12-17T00:38:13.329Z,47.33
2018-12-17T00:40:42.450Z,46.67
2018-12-17T00:43:11.565Z,46.23
2018-12-17T00:45:40.716Z,49.57
2018-12-17T00:48:09.869Z,50.23
2018-12-17T00:50:39.257Z,53.07
2018-12-17T00:53:08.388Z,48.87
2018-12-17T00:55:37.609Z,47.77
2018-12-17T00:58:06.735Z,52.57
2018-12-17T01:00:35.919Z,54.07
2018-12-17T01:03:05.297Z,58.30
2018-12-17T01:05:34.399Z,56.07
2018-12-17T01:08:03.893Z,55.33
2018-12-17T01:10:32.998Z,58.03
2018-12-17T01:13:02.094Z,55.23
2018-12-17T01:15:31.465Z,62.23
2018-12-17T01:18:00.627Z,64.83
2018-12-17T01:20:29.758Z,61.27
2018-12-17T01:22:58.906Z,63.87
2018-12-17T01:25:28.011Z,86.80
2018-12-17T01:27:57.166Z,78.90
2018-12-17T01:30:26.296Z,69.23
2018-12-17T01:32:55.675Z,66.63
2018-12-17T01:35:24.757Z,60.10
2018-12-17T01:37:53.904Z,61.20
2018-12-17T01:40:22.999Z,65.17
2018-12-17T01:42:52.080Z,56.57
2018-12-17T01:45:21.184Z,56.33
2018-12-17T01:47:50.310Z,61.73
2018-12-17T01:50:19.458Z,57.17
2018-12-17T01:52:48.693Z,53.40
2018-12-17T01:55:17.778Z,56.37
2018-12-17T01:57:46.894Z,66.27
2018-12-17T02:00:16.191Z,70.37
2018-12-17T02:02:45.460Z,81.30
2018-12-17T02:05:14.556Z,90.57
2018-12-17T02:07:43.742Z,67.80
2018-12-17T02:10:12.871Z,61.10
2018-12-17T02:12:41.947Z,60.37
2018-12-17T02:15:11.090Z,51.37
2018-12-17T02:17:40.173Z,51.63
2018-12-17T02:20:09.470Z,50.10
2018-12-17T02:22:38.647Z,53.73
2018-12-17T02:25:07.954Z,51.10
2018-12-17T02:27:37.181Z,53.67
2018-12-17T02:30:06.614Z,50.93
2018-12-17T02:32:35.714Z,52.20
2018-12-17T02:35:07.765Z,50.53
2018-12-17T02:37:36.621Z,48.73
2018-12-17T02:40:07.162Z,53.27
2018-12-17T02:42:36.015Z,49.17
2018-12-17T02:45:05.562Z,46.10
2018-12-17T02:47:34.470Z,49.20
2018-12-17T02:50:03.344Z,47.97
2018-12-17T02:52:32.195Z,48.33
2018-12-17T02:55:01.319Z,49.60
2018-12-17T02:57:30.322Z,48.00
2018-12-17T02:59:59.175Z,49.17
2018-12-17T03:02:28.028Z,45.30
2018-12-17T03:04:57.058Z,55.03
2018-12-17T03:07:25.938Z,55.53
2018-12-17T03:09:54.802Z,52.70
2018-12-17T03:12:23.757Z,51.27
2018-12-17T03:14:52.724Z,43.50
2018-12-17T03:17:21.563Z,45.70
2018-12-17T03:19:50.464Z,49.33
2018-12-17T03:22:19.333Z,48.47
2018-12-17T03:24:48.292Z,55.07
2018-12-17T03:27:17.186Z,50.10
2018-12-17T03:29:46.051Z,43.57
2018-12-17T03:32:14.906Z,46.97
2018-12-17T03:34:43.790Z,43.73
2018-12-17T03:37:12.676Z,47.63
2018-12-17T03:39:41.584Z,47.17
2018-12-17T03:42:10.682Z,46.80
2018-12-17T03:44:39.591Z,45.80
2018-12-17T03:47:08.458Z,47.00
2018-12-17T03:49:37.392Z,48.60
2018-12-17T03:52:06.423Z,46.30
2018-12-17T03:54:35.263Z,51.83
2018-12-17T03:57:04.143Z,51.33
2018-12-17T03:59:33.051Z,52.60
2018-12-17T04:02:01.925Z,49.47
2018-12-17T04:04:34.729Z,51.80
2018-12-17T04:07:03.623Z,45.90
2018-12-17T04:09:32.475Z,49.43
2018-12-17T04:12:01.331Z,47.87
2018-12-17T04:14:30.198Z,46.63
2018-12-17T04:16:59.077Z,50.47
2018-12-17T04:19:27.968Z,52.40
2018-12-17T04:21:56.832Z,55.13
2018-12-17T04:24:25.681Z,50.33
2018-12-17T04:26:54.546Z,53.17
2018-12-17T04:29:23.379Z,53.60
2018-12-17T04:31:52.283Z,55.60
2018-12-17T04:34:21.122Z,53.10
2018-12-17T04:36:49.990Z,47.37
2018-12-17T04:39:18.886Z,48.57
2018-12-17T04:41:47.756Z,49.83
2018-12-17T04:44:16.742Z,48.53
2018-12-17T04:46:45.648Z,55.60
2018-12-17T04:49:14.492Z,58.03
2018-12-17T04:51:43.363Z,53.30
2018-12-17T04:54:12.244Z,53.43
2018-12-17T04:56:41.072Z,54.10
2018-12-17T04:59:14.534Z,51.20
2018-12-17T05:01:40.856Z,53.00
2018-12-17T05:04:09.738Z,52.83
2018-12-17T05:06:38.816Z,49.80
2018-12-17T05:09:09.006Z,48.97
2018-12-17T05:11:37.846Z,49.77
2018-12-17T05:14:07.241Z,52.00
2018-12-17T05:16:36.177Z,48.43
2018-12-17T05:19:05.029Z,55.23
2018-12-17T05:21:33.946Z,50.60
2018-12-17T05:24:02.833Z,54.60
2018-12-17T05:26:31.672Z,53.20
2018-12-17T05:29:00.560Z,48.97
2018-12-17T05:31:29.433Z,54.77
2018-12-17T05:33:58.285Z,53.23
2018-12-17T05:36:27.142Z,53.57
2018-12-17T05:38:56.057Z,53.70
2018-12-17T05:41:24.913Z,52.50
2018-12-17T05:43:53.792Z,52.00
2018-12-17T05:46:22.746Z,50.30
2018-12-17T05:48:51.617Z,52.90
2018-12-17T05:51:21.405Z,53.17
2018-12-17T05:53:50.334Z,52.63
2018-12-17T05:56:19.250Z,54.67
2018-12-17T05:58:48.235Z,49.80
2018-12-17T06:01:17.179Z,55.87
2018-12-17T06:03:46.121Z,51.77
2018-12-17T06:06:14.967Z,51.53
2018-12-17T06:08:43.857Z,51.50
2018-12-17T06:11:12.782Z,53.07
2018-12-17T06:13:41.678Z,61.63
2018-12-17T06:16:10.583Z,54.87
2018-12-17T06:18:40.311Z,56.00
2018-12-17T06:21:09.163Z,54.47
2018-12-17T06:23:38.264Z,59.67
2018-12-17T06:26:07.130Z,53.13
2018-12-17T06:28:35.992Z,55.83
2018-12-17T06:31:04.878Z,59.73
2018-12-17T06:33:33.846Z,56.80
2018-12-17T06:36:02.702Z,69.97
2018-12-17T06:38:31.534Z,68.57
2018-12-17T06:41:00.420Z,67.27
2018-12-17T06:43:29.294Z,65.30
2018-12-17T06:45:58.280Z,66.07
2018-12-17T06:48:27.157Z,65.07
2018-12-17T06:50:55.996Z,70.57
2018-12-17T06:53:24.829Z,69.47
2018-12-17T06:55:53.676Z,65.37
2018-12-17T06:58:23.021Z,80.73
2018-12-17T07:00:51.885Z,79.20
2018-12-17T07:03:20.805Z,61.43
2018-12-17T07:05:49.769Z,58.77
2018-12-17T07:08:19.200Z,56.67
2018-12-17T07:10:56.262Z,58.63
2018-12-17T07:13:25.813Z,54.40
2018-12-17T07:15:54.831Z,61.73
2018-12-17T07:18:23.727Z,59.77
2018-12-17T07:20:52.665Z,54.23
2018-12-17T07:23:21.628Z,65.77
2018-12-17T07:25:50.804Z,67.97
2018-12-17T07:28:19.804Z,65.80
2018-12-17T07:30:48.804Z,61.30
2018-12-17T07:33:17.974Z,63.33
2018-12-17T07:35:46.999Z,65.57
2018-12-17T07:38:15.936Z,64.60
2018-12-17T07:40:44.947Z,96.10
2018-12-17T07:43:13.979Z,92.50
2018-12-17T07:45:42.919Z,76.73
2018-12-17T07:48:11.938Z,67.43
2018-12-17T07:50:40.859Z,65.33
2018-12-17T07:56:10.513Z,82.60
2018-12-17T07:58:41.138Z,63.80
2018-12-17T08:01:10.065Z,154.80
2018-12-17T08:03:38.983Z,177.60
2018-12-17T08:06:07.882Z,222.20
2018-12-17T08:08:36.851Z,146.70
2018-12-17T08:11:06.164Z,84.93
2018-12-17T08:13:35.278Z,83.17
2018-12-17T08:16:04.570Z,119.40
2018-12-17T08:18:33.586Z,100.27
2018-12-17T08:21:02.468Z,91.40
2018-12-17T08:23:31.406Z,85.63
2018-12-17T08:26:00.337Z,88.63
2018-12-17T08:28:29.249Z,76.80
2018-12-17T08:30:58.213Z,68.83
2018-12-17T08:33:27.154Z,59.67
2018-12-17T08:35:56.112Z,67.87
2018-12-17T08:38:25.088Z,62.27
2018-12-17T08:40:53.999Z,65.40
2018-12-17T08:43:22.922Z,62.63
2018-12-17T08:45:52.033Z,77.10
2018-12-17T08:48:20.909Z,74.30
2018-12-17T08:50:50.355Z,79.37
2018-12-17T08:53:19.280Z,66.30
2018-12-17T08:55:48.184Z,67.37
2018-12-17T08:58:17.756Z,77.50
2018-12-17T09:00:46.745Z,78.43
2018-12-17T09:03:15.831Z,69.77
2018-12-17T09:05:44.843Z,71.87
2018-12-17T09:08:13.752Z,71.70
2018-12-17T09:10:42.670Z,58.27
2018-12-17T09:13:11.670Z,59.33
2018-12-17T09:15:40.533Z,62.57
2018-12-17T09:18:09.415Z,58.13
2018-12-17T09:20:38.413Z,58.70
2018-12-17T09:23:07.462Z,58.33
2018-12-17T09:25:36.424Z,59.73
2018-12-17T09:28:05.518Z,58.50
2018-12-17T09:30:41.178Z,62.67
2018-12-17T09:33:06.412Z,62.77
2018-12-17T09:35:35.363Z,64.93
2018-12-17T09:38:04.357Z,59.07
2018-12-17T09:40:47.388Z,57.70
2018-12-17T09:43:16.954Z,59.97
2018-12-17T09:45:45.991Z,63.53
2018-12-17T09:48:15.060Z,60.00
2018-12-17T09:50:44.652Z,66.83
2018-12-17T09:53:13.594Z,61.23
2018-12-17T09:55:42.630Z,65.17
2018-12-17T09:58:11.578Z,62.53
2018-12-17T10:00:41.119Z,62.03
2018-12-17T10:03:10.218Z,63.87
2018-12-17T10:05:39.107Z,64.70
2018-12-17T10:08:08.049Z,65.73
2018-12-17T10:10:36.960Z,61.13
2018-12-17T10:13:05.902Z,60.30
2018-12-17T10:15:34.812Z,60.30
2018-12-17T10:18:03.735Z,62.53
2018-12-17T10:20:32.689Z,63.63
2018-12-17T10:23:01.606Z,58.87
2018-12-17T10:25:30.601Z,64.33
2018-12-17T10:27:59.507Z,61.93
2018-12-17T10:30:32.473Z,59.03
2018-12-17T10:32:59.590Z,58.73
2018-12-17T10:35:28.606Z,56.73
2018-12-17T10:37:57.558Z,63.80
2018-12-17T10:40:26.555Z,59.27
2018-12-17T10:42:55.577Z,51.23
2018-12-17T10:45:24.497Z,52.30
2018-12-17T10:47:53.472Z,53.63
2018-12-17T10:50:22.385Z,55.87
2018-12-17T10:52:51.250Z,59.40
2018-12-17T10:55:20.203Z,55.27
2018-12-17T10:57:49.142Z,56.33
2018-12-17T11:00:23.273Z,51.83
2018-12-17T11:02:53.970Z,64.77
2018-12-17T11:05:23.158Z,57.37
2018-12-17T11:07:52.004Z,58.20
2018-12-17T11:10:20.917Z,55.23
2018-12-17T11:12:49.875Z,57.70
2018-12-17T11:15:18.739Z,56.47
2018-12-17T11:17:47.601Z,52.77
2018-12-17T11:20:16.525Z,55.57
2018-12-17T11:22:45.866Z,56.10
2018-12-17T11:25:14.797Z,55.50
2018-12-17T11:27:43.653Z,56.67
2018-12-17T11:30:13.023Z,64.20
2018-12-17T11:32:44.273Z,61.37
2018-12-17T11:35:13.597Z,61.63
2018-12-17T11:37:42.497Z,52.03
2018-12-17T11:40:11.420Z,72.47
2018-12-17T11:42:40.298Z,91.00
2018-12-17T11:45:09.228Z,88.77
2018-12-17T11:47:38.124Z,76.43
2018-12-17T11:50:08.142Z,70.07
2018-12-17T11:52:37.101Z,56.33
2018-12-17T11:55:07.044Z,68.70
2018-12-17T12:01:20.751Z,52.13
2018-12-17T12:03:49.694Z,62.37
2018-12-17T12:06:18.841Z,52.37
2018-12-17T12:08:47.801Z,100.70
2018-12-17T12:11:16.702Z,80.67
2018-12-17T12:13:45.858Z,95.50
2018-12-17T12:16:14.724Z,56.17
2018-12-17T12:18:43.623Z,69.87
2018-12-17T12:21:12.547Z,60.33
2018-12-17T12:23:41.712Z,54.23
2018-12-17T12:26:10.598Z,62.13
2018-12-17T12:28:39.592Z,57.23
2018-12-17T12:31:08.530Z,54.20
2018-12-17T12:33:37.597Z,53.67
2018-12-17T12:36:06.468Z,55.60
2018-12-17T12:38:35.715Z,56.40
2018-12-17T12:41:04.629Z,55.37
2018-12-17T12:43:33.486Z,58.00
2018-12-17T12:46:02.442Z,52.60
2018-12-17T12:48:31.366Z,61.70
2018-12-17T12:51:02.099Z,65.03
2018-12-17T12:53:31.050Z,59.17
2018-12-17T12:56:00.466Z,57.23
2018-12-17T12:58:29.531Z,64.50
2018-12-17T13:00:58.449Z,63.63
2018-12-17T13:03:27.322Z,60.33
2018-12-17T13:05:56.285Z,55.80
2018-12-17T13:08:25.651Z,58.67
2018-12-17T13:10:54.518Z,56.60
2018-12-17T13:13:23.459Z,48.83
2018-12-17T13:15:52.868Z,42.10
2018-12-17T13:18:21.872Z,45.43
2018-12-17T13:20:50.759Z,51.27
2018-12-17T13:23:20.572Z,46.50
2018-12-17T13:25:49.864Z,38.50
2018-12-17T13:28:19.100Z,39.20
2018-12-17T13:30:48.200Z,42.87
2018-12-17T13:33:17.193Z,49.27
2018-12-17T13:35:46.254Z,41.77
2018-12-17T13:38:15.097Z,38.23
2018-12-17T13:40:43.991Z,32.90
2018-12-17T13:43:12.849Z,40.23
2018-12-17T13:45:41.750Z,54.50
2018-12-17T13:48:10.623Z,52.40
2018-12-17T13:50:41.054Z,56.87
2018-12-17T13:53:15.226Z,55.43
2018-12-17T13:55:44.156Z,60.77
2018-12-17T13:58:13.019Z,57.40
2018-12-17T14:00:41.960Z,72.70
2018-12-17T14:03:10.796Z,72.70
2018-12-17T14:05:40.356Z,70.23
2018-12-17T14:08:09.289Z,77.03
2018-12-17T14:10:43.355Z,68.47
2018-12-17T14:13:15.185Z,73.43
2018-12-17T14:15:53.131Z,60.77
2018-12-17T14:18:27.453Z,55.37
2018-12-17T14:21:01.529Z,59.40
2018-12-17T14:23:30.576Z,53.10
2018-12-17T14:25:59.574Z,51.03
2018-12-17T14:28:29.504Z,60.37
2018-12-17T14:30:58.720Z,53.73
2018-12-17T14:33:27.654Z,52.43
2018-12-17T14:36:01.764Z,54.57
2018-12-17T14:38:37.725Z,51.43
2018-12-17T14:41:07.368Z,53.50
2018-12-17T14:43:36.401Z,52.40
2018-12-17T14:46:05.455Z,56.30
2018-12-17T14:48:34.328Z,54.67
2018-12-17T14:51:03.251Z,57.00
2018-12-17T14:53:32.197Z,62.63
2018-12-17T14:56:01.093Z,63.33
2018-12-17T14:58:30.810Z,60.33
2018-12-17T15:00:59.743Z,60.13
2018-12-17T15:03:28.744Z,55.37
2018-12-17T15:05:57.666Z,63.07
2018-12-17T15:08:27.323Z,65.43
2018-12-17T15:10:56.231Z,60.43
2018-12-17T15:13:25.061Z,58.50
2018-12-17T15:15:53.991Z,57.40
2018-12-17T15:18:22.895Z,60.47
2018-12-17T15:20:52.447Z,62.10
2018-12-17T15:23:21.498Z,60.20
2018-12-17T15:25:50.419Z,66.13
2018-12-17T15:28:19.420Z,70.37
2018-12-17T15:30:48.369Z,76.10
2018-12-17T15:33:17.297Z,66.43
2018-12-17T15:35:46.207Z,68.00
2018-12-17T15:38:17.458Z,71.07
2018-12-17T15:40:46.782Z,78.07
2018-12-17T15:43:15.713Z,79.93
2018-12-17T15:45:44.571Z,94.37
2018-12-17T15:48:14.663Z,85.37
2018-12-17T15:50:44.055Z,75.97
2018-12-17T15:53:12.905Z,71.77
2018-12-17T15:55:41.765Z,77.37
2018-12-17T15:58:10.815Z,72.43
2018-12-17T16:00:39.793Z,71.47
2018-12-17T16:03:08.748Z,75.47
2018-12-17T16:05:37.679Z,85.70
2018-12-17T16:08:06.529Z,93.10
2018-12-17T16:10:35.429Z,101.53
2018-12-17T16:13:04.312Z,108.63
2018-12-17T16:15:33.169Z,105.40
2018-12-17T16:18:02.051Z,100.80
2018-12-17T16:20:30.955Z,109.57
2018-12-17T16:22:59.804Z,128.77
2018-12-17T16:25:29.652Z,119.30
2018-12-17T16:27:58.513Z,124.63
2018-12-17T16:30:27.620Z,132.97
2018-12-17T16:32:56.534Z,138.43
2018-12-17T16:35:25.358Z,149.13
2018-12-17T16:37:54.242Z,157.73
2018-12-17T16:40:23.433Z,158.93
2018-12-17T16:42:52.519Z,151.93
2018-12-17T16:45:21.582Z,141.53
2018-12-17T16:47:50.603Z,148.83
2018-12-17T16:50:19.421Z,166.13
2018-12-17T16:52:48.310Z,179.53
2018-12-17T16:55:17.550Z,217.33
2018-12-17T16:57:46.444Z,250.67
2018-12-17T17:00:15.599Z,264.03
2018-12-17T17:02:44.570Z,272.07
2018-12-17T17:05:13.479Z,274.00
2018-12-17T17:07:42.430Z,253.17
2018-12-17T17:10:11.289Z,259.27
2018-12-17T17:12:40.330Z,267.43
2018-12-17T17:15:11.706Z,251.77
2018-12-17T17:17:40.903Z,285.07
2018-12-17T17:20:10.104Z,266.57
2018-12-17T17:22:39.007Z,262.13
2018-12-17T17:25:08.203Z,256.90
2018-12-17T17:27:37.104Z,243.07
2018-12-17T17:30:07.215Z,209.57
2018-12-17T17:32:36.088Z,209.43
2018-12-17T17:35:05.712Z,188.37
2018-12-17T17:37:34.688Z,182.57
2018-12-17T17:40:03.785Z,177.10
2018-12-17T17:42:32.664Z,191.93
2018-12-17T17:45:01.681Z,200.53
2018-12-17T17:47:30.584Z,201.50
2018-12-17T17:49:59.515Z,206.33
2018-12-17T17:52:28.893Z,249.67
2018-12-17T17:54:58.011Z,313.17
2018-12-17T17:57:26.979Z,352.90
2018-12-17T17:59:55.912Z,393.43
2018-12-17T18:02:24.932Z,354.90
2018-12-17T18:04:53.981Z,317.83
2018-12-17T18:07:23.947Z,276.20
2018-12-17T18:09:52.875Z,208.63
2018-12-17T18:12:21.801Z,221.07
2018-12-17T18:14:50.771Z,207.07
2018-12-17T18:17:19.790Z,223.93
2018-12-17T18:19:48.785Z,228.60
2018-12-17T18:22:18.399Z,219.47
2018-12-17T18:24:47.889Z,203.10
2018-12-17T18:27:16.864Z,208.33
2018-12-17T18:29:46.191Z,208.10
2018-12-17T18:32:15.178Z,204.90
2018-12-17T18:34:44.221Z,204.57
2018-12-17T18:37:13.172Z,187.93
2018-12-17T18:39:42.103Z,197.67
2018-12-17T18:42:10.928Z,187.90
2018-12-17T18:44:40.613Z,189.17
2018-12-17T18:47:09.469Z,208.90
2018-12-17T18:49:38.359Z,243.80
2018-12-17T18:52:07.261Z,272.27
2018-12-17T18:54:36.177Z,232.30
2018-12-17T18:57:05.755Z,273.60
2018-12-17T18:59:34.745Z,292.80
2018-12-17T19:02:03.685Z,268.53
2018-12-17T19:04:33.238Z,271.63
2018-12-17T19:07:03.715Z,289.80
2018-12-17T19:09:32.799Z,295.77
2018-12-17T19:12:01.761Z,290.00
2018-12-17T19:14:31.004Z,268.20
2018-12-17T19:17:00.009Z,270.53
2018-12-17T19:19:29.017Z,278.07
2018-12-17T19:21:57.890Z,249.97
2018-12-17T19:24:26.837Z,238.60
2018-12-17T19:26:55.758Z,229.37
2018-12-17T19:29:24.694Z,228.10
2018-12-17T19:31:53.644Z,219.03
2018-12-17T19:34:22.598Z,249.70
2018-12-17T19:36:52.479Z,228.90
2018-12-17T19:39:21.358Z,235.60
2018-12-17T19:41:50.339Z,241.70
2018-12-17T19:44:19.203Z,234.07
2018-12-17T19:46:48.066Z,262.10
2018-12-17T19:49:16.959Z,256.63
2018-12-17T19:51:45.898Z,250.93
2018-12-17T19:54:15.113Z,258.93
2018-12-17T19:56:44.106Z,257.23
2018-12-17T19:59:13.056Z,260.07
2018-12-17T20:01:42.034Z,245.87
2018-12-17T20:04:11.026Z,247.57
2018-12-17T20:06:39.874Z,240.37
2018-12-17T20:09:08.714Z,254.10
2018-12-17T20:11:37.652Z,245.53
2018-12-17T20:14:06.643Z,218.00
2018-12-17T20:16:35.610Z,223.60
2018-12-17T20:19:04.519Z,238.63
2018-12-17T20:21:33.422Z,217.03
2018-12-17T20:24:02.381Z,226.30
2018-12-17T20:26:31.342Z,215.80
2018-12-17T20:29:00.352Z,213.00
2018-12-17T20:31:31.077Z,281.10
2018-12-17T20:33:59.970Z,287.63
2018-12-17T20:36:28.821Z,311.23
2018-12-17T21:01:48.829Z,403.23
2018-12-17T21:04:17.713Z,365.30
2018-12-17T21:06:49.835Z,374.93
2018-12-17T21:09:24.582Z,381.57
2018-12-17T21:11:53.499Z,369.00
2018-12-17T21:14:23.864Z,370.83
2018-12-17T21:16:53.148Z,334.93
2018-12-17T21:19:23.591Z,352.60
2018-12-17T21:21:52.513Z,348.70
2018-12-17T21:24:21.447Z,313.97
2018-12-17T21:26:52.485Z,308.90
2018-12-17T21:29:29.816Z,298.07
2018-12-17T21:32:00.635Z,301.20
2018-12-17T21:34:35.012Z,295.40
2018-12-17T21:37:06.382Z,307.20
2018-12-17T21:39:37.297Z,325.13
2018-12-17T21:42:06.224Z,350.17
2018-12-17T21:44:35.111Z,348.87
2018-12-17T21:47:05.078Z,363.90
2018-12-17T21:49:34.062Z,377.97
2018-12-17T21:52:02.955Z,394.00
2018-12-17T21:54:31.877Z,379.13
2018-12-17T21:57:00.804Z,391.20
2018-12-17T21:59:29.664Z,437.33
2018-12-17T22:01:58.634Z,426.23
2018-12-17T22:04:27.561Z,457.03
2018-12-17T22:06:56.820Z,427.60
2018-12-17T22:09:25.728Z,427.27
2018-12-17T22:11:54.718Z,429.33
2018-12-17T22:14:23.651Z,418.50
2018-12-17T22:16:52.538Z,417.63
2018-12-17T22:19:22.076Z,416.67
2018-12-17T22:21:51.098Z,413.43
2018-12-17T22:24:20.148Z,415.93
2018-12-17T22:26:49.094Z,434.43
2018-12-17T22:29:17.992Z,421.03
2018-12-17T22:31:46.916Z,432.07
2018-12-17T22:34:15.821Z,420.77
2018-12-17T22:36:45.238Z,457.67
2018-12-17T22:39:14.261Z,480.77
2018-12-17T22:41:43.192Z,477.43
2018-12-17T22:44:12.050Z,457.23
2018-12-17T22:46:41.044Z,445.40
2018-12-17T22:49:10.226Z,441.40
2018-12-17T22:51:39.199Z,455.33
2018-12-17T22:54:08.199Z,464.47
2018-12-17T22:56:37.088Z,450.80
2018-12-17T22:59:06.241Z,444.50
2018-12-17T23:01:35.118Z,450.73
2018-12-17T23:04:04.998Z,454.20
2018-12-17T23:06:34.485Z,453.57
2018-12-17T23:09:04.929Z,443.63
2018-12-17T23:11:50.304Z,441.77
2018-12-17T23:14:30.208Z,449.93
2018-12-17T23:17:10.150Z,449.07
2018-12-17T23:19:43.864Z,457.67
2018-12-17T23:22:13.130Z,456.87
2018-12-17T23:24:42.601Z,471.37
2018-12-17T23:27:11.557Z,478.20
2018-12-17T23:29:40.568Z,464.50
2018-12-17T23:32:09.650Z,481.67
2018-12-17T23:34:38.537Z,459.10
2018-12-17T23:37:07.484Z,439.67
2018-12-17T23:39:36.393Z,425.50
2018-12-17T23:42:05.312Z,418.27
2018-12-17T23:44:37.932Z,428.50
2018-12-17T23:47:06.868Z,433.87
2018-12-17T23:49:36.270Z,448.30
2018-12-17T23:52:06.165Z,468.37
2018-12-17T23:54:35.030Z,488.37
2018-12-17T23:57:03.924Z,471.27
2018-12-17T23:59:32.808Z,461.27
